sensor_id;sensor_type;location;lat;lon;timestamp;temperature;humidity
420;DHT22;42600;54.408;13.016;2024-02-16T00:01:40;11.60;92.70
420;DHT22;42600;54.408;13.016;2024-02-16T00:04:07;11.60;92.70
420;DHT22;42600;54.408;13.016;2024-02-16T00:06:33;11.60;92.70
420;DHT22;42600;54.408;13.016;2024-02-16T00:09:01;11.60;92.70
420;DHT22;42600;54.408;13.016;2024-02-16T00:11:29;11.50;92.70
420;DHT22;42600;54.408;13.016;2024-02-16T00:13:55;11.50;92.70
420;DHT22;42600;54.408;13.016;2024-02-16T00:16:22;11.50;92.70
420;DHT22;42600;54.408;13.016;2024-02-16T00:18:48;11.50;92.70
420;DHT22;42600;54.408;13.016;2024-02-16T00:21:15;11.50;92.70
420;DHT22;42600;54.408;13.016;2024-02-16T00:23:42;11.50;92.70
420;DHT22;42600;54.408;13.016;2024-02-16T00:26:09;11.50;92.70
420;DHT22;42600;54.408;13.016;2024-02-16T00:28:37;11.50;92.70
420;DHT22;42600;54.408;13.016;2024-02-16T00:31:04;11.50;92.70
420;DHT22;42600;54.408;13.016;2024-02-16T00:33:31;11.50;92.70
420;DHT22;42600;54.408;13.016;2024-02-16T00:35:58;11.50;92.70
420;DHT22;42600;54.408;13.016;2024-02-16T00:38:25;11.50;92.70
420;DHT22;42600;54.408;13.016;2024-02-16T00:40:52;11.40;92.70
420;DHT22;42600;54.408;13.016;2024-02-16T00:43:18;11.40;92.70
420;DHT22;42600;54.408;13.016;2024-02-16T00:45:46;11.40;92.70
420;DHT22;42600;54.408;13.016;2024-02-16T00:48:14;11.40;92.70
420;DHT22;42600;54.408;13.016;2024-02-16T00:50:40;11.40;92.70
420;DHT22;42600;54.408;13.016;2024-02-16T00:53:08;11.30;92.70
420;DHT22;42600;54.408;13.016;2024-02-16T00:55:34;11.30;92.70
420;DHT22;42600;54.408;13.016;2024-02-16T00:58:02;11.30;92.70
420;DHT22;42600;54.408;13.016;2024-02-16T01:00:29;11.20;92.70
420;DHT22;42600;54.408;13.016;2024-02-16T01:02:57;11.20;92.70
420;DHT22;42600;54.408;13.016;2024-02-16T01:05:24;11.20;92.70
420;DHT22;42600;54.408;13.016;2024-02-16T01:07:51;11.20;92.70
420;DHT22;42600;54.408;13.016;2024-02-16T01:10:18;11.20;92.70
420;DHT22;42600;54.408;13.016;2024-02-16T01:12:44;11.20;92.70
420;DHT22;42600;54.408;13.016;2024-02-16T01:15:11;11.10;92.70
420;DHT22;42600;54.408;13.016;2024-02-16T01:17:37;11.10;92.70
420;DHT22;42600;54.408;13.016;2024-02-16T01:20:07;11.10;92.70
420;DHT22;42600;54.408;13.016;2024-02-16T01:22:35;11.10;92.70
420;DHT22;42600;54.408;13.016;2024-02-16T01:25:02;11.10;92.70
420;DHT22;42600;54.408;13.016;2024-02-16T01:27:29;11.10;92.70
420;DHT22;42600;54.408;13.016;2024-02-16T01:29:55;11.00;92.70
420;DHT22;42600;54.408;13.016;2024-02-16T01:32:22;11.00;92.70
420;DHT22;42600;54.408;13.016;2024-02-16T01:34:49;11.00;92.70
420;DHT22;42600;54.408;13.016;2024-02-16T01:37:17;11.00;92.70
420;DHT22;42600;54.408;13.016;2024-02-16T01:39:44;11.00;92.70
420;DHT22;42600;54.408;13.016;2024-02-16T01:42:11;11.00;92.70
420;DHT22;42600;54.408;13.016;2024-02-16T01:44:37;11.00;92.70
420;DHT22;42600;54.408;13.016;2024-02-16T01:47:04;11.00;92.70
420;DHT22;42600;54.408;13.016;2024-02-16T01:49:31;11.00;92.70
420;DHT22;42600;54.408;13.016;2024-02-16T01:51:58;11.00;92.70
420;DHT22;42600;54.408;13.016;2024-02-16T01:54:25;11.00;92.70
420;DHT22;42600;54.408;13.016;2024-02-16T01:56:53;11.00;92.70
420;DHT22;42600;54.408;13.016;2024-02-16T01:59:20;11.00;92.70
420;DHT22;42600;54.408;13.016;2024-02-16T02:01:47;10.90;92.70
420;DHT22;42600;54.408;13.016;2024-02-16T02:04:13;10.70;92.70
420;DHT22;42600;54.408;13.016;2024-02-16T02:06:41;10.60;92.70
420;DHT22;42600;54.408;13.016;2024-02-16T02:09:07;10.70;92.70
420;DHT22;42600;54.408;13.016;2024-02-16T02:11:36;10.70;92.70
420;DHT22;42600;54.408;13.016;2024-02-16T02:14:03;10.60;92.70
420;DHT22;42600;54.408;13.016;2024-02-16T02:16:29;10.50;92.70
420;DHT22;42600;54.408;13.016;2024-02-16T02:18:56;10.50;92.70
420;DHT22;42600;54.408;13.016;2024-02-16T02:21:22;10.40;92.70
420;DHT22;42600;54.408;13.016;2024-02-16T02:23:50;10.40;92.70
420;DHT22;42600;54.408;13.016;2024-02-16T02:26:17;10.20;92.70
420;DHT22;42600;54.408;13.016;2024-02-16T02:28:43;10.20;92.70
420;DHT22;42600;54.408;13.016;2024-02-16T02:31:11;10.10;92.70
420;DHT22;42600;54.408;13.016;2024-02-16T02:33:37;10.00;92.70
420;DHT22;42600;54.408;13.016;2024-02-16T02:36:05;9.90;92.70
420;DHT22;42600;54.408;13.016;2024-02-16T02:38:31;9.90;92.70
420;DHT22;42600;54.408;13.016;2024-02-16T02:40:59;9.90;92.70
420;DHT22;42600;54.408;13.016;2024-02-16T02:43:26;9.90;92.70
420;DHT22;42600;54.408;13.016;2024-02-16T02:45:53;9.80;92.70
420;DHT22;42600;54.408;13.016;2024-02-16T02:48:19;9.80;92.70
420;DHT22;42600;54.408;13.016;2024-02-16T02:50:46;9.70;92.70
420;DHT22;42600;54.408;13.016;2024-02-16T02:53:12;9.70;92.70
420;DHT22;42600;54.408;13.016;2024-02-16T02:55:39;9.60;92.70
420;DHT22;42600;54.408;13.016;2024-02-16T02:58:07;9.50;92.70
420;DHT22;42600;54.408;13.016;2024-02-16T03:00:33;9.50;92.70
420;DHT22;42600;54.408;13.016;2024-02-16T03:03:00;9.40;92.70
420;DHT22;42600;54.408;13.016;2024-02-16T03:05:27;9.40;92.70
420;DHT22;42600;54.408;13.016;2024-02-16T03:07:53;9.30;92.70
420;DHT22;42600;54.408;13.016;2024-02-16T03:10:20;9.20;92.70
420;DHT22;42600;54.408;13.016;2024-02-16T03:12:49;9.10;92.70
420;DHT22;42600;54.408;13.016;2024-02-16T03:15:17;9.10;92.70
420;DHT22;42600;54.408;13.016;2024-02-16T03:17:44;9.20;92.70
420;DHT22;42600;54.408;13.016;2024-02-16T03:20:10;9.10;92.70
420;DHT22;42600;54.408;13.016;2024-02-16T03:22:37;9.00;92.70
420;DHT22;42600;54.408;13.016;2024-02-16T03:25:04;9.00;92.70
420;DHT22;42600;54.408;13.016;2024-02-16T03:27:31;8.90;92.70
420;DHT22;42600;54.408;13.016;2024-02-16T03:29:58;8.80;92.70
420;DHT22;42600;54.408;13.016;2024-02-16T03:32:26;8.90;92.70
420;DHT22;42600;54.408;13.016;2024-02-16T03:34:52;8.80;92.70
420;DHT22;42600;54.408;13.016;2024-02-16T03:37:19;8.90;92.70
420;DHT22;42600;54.408;13.016;2024-02-16T03:39:45;8.90;92.70
420;DHT22;42600;54.408;13.016;2024-02-16T03:42:12;9.00;92.70
420;DHT22;42600;54.408;13.016;2024-02-16T03:44:39;9.00;92.70
420;DHT22;42600;54.408;13.016;2024-02-16T03:47:05;9.10;92.70
420;DHT22;42600;54.408;13.016;2024-02-16T03:49:35;9.10;92.70
420;DHT22;42600;54.408;13.016;2024-02-16T03:52:02;9.20;92.70
420;DHT22;42600;54.408;13.016;2024-02-16T03:54:29;9.20;92.70
420;DHT22;42600;54.408;13.016;2024-02-16T03:56:56;9.30;92.70
420;DHT22;42600;54.408;13.016;2024-02-16T03:59:23;9.40;92.70
420;DHT22;42600;54.408;13.016;2024-02-16T04:01:50;9.40;92.70
420;DHT22;42600;54.408;13.016;2024-02-16T04:04:17;9.40;92.70
420;DHT22;42600;54.408;13.016;2024-02-16T04:06:45;9.50;92.70
420;DHT22;42600;54.408;13.016;2024-02-16T04:09:11;9.50;92.70
420;DHT22;42600;54.408;13.016;2024-02-16T04:11:38;9.50;92.70
420;DHT22;42600;54.408;13.016;2024-02-16T04:14:05;9.60;92.70
420;DHT22;42600;54.408;13.016;2024-02-16T04:16:31;9.60;92.70
420;DHT22;42600;54.408;13.016;2024-02-16T04:18:58;9.60;92.70
420;DHT22;42600;54.408;13.016;2024-02-16T04:21:24;9.60;92.70
420;DHT22;42600;54.408;13.016;2024-02-16T04:23:52;9.60;92.70
420;DHT22;42600;54.408;13.016;2024-02-16T04:26:19;9.60;92.70
420;DHT22;42600;54.408;13.016;2024-02-16T04:28:45;9.70;92.70
420;DHT22;42600;54.408;13.016;2024-02-16T04:31:12;9.70;92.70
420;DHT22;42600;54.408;13.016;2024-02-16T04:33:38;9.70;92.70
420;DHT22;42600;54.408;13.016;2024-02-16T04:36:06;9.70;92.70
420;DHT22;42600;54.408;13.016;2024-02-16T04:38:33;9.70;92.70
420;DHT22;42600;54.408;13.016;2024-02-16T04:41:01;9.70;92.70
420;DHT22;42600;54.408;13.016;2024-02-16T04:43:27;9.70;92.70
420;DHT22;42600;54.408;13.016;2024-02-16T04:45:54;9.70;92.70
420;DHT22;42600;54.408;13.016;2024-02-16T04:48:20;9.70;92.70
420;DHT22;42600;54.408;13.016;2024-02-16T04:50:47;9.70;92.70
420;DHT22;42600;54.408;13.016;2024-02-16T04:53:14;9.70;92.70
420;DHT22;42600;54.408;13.016;2024-02-16T04:55:40;9.70;92.70
420;DHT22;42600;54.408;13.016;2024-02-16T04:58:08;9.60;92.70
420;DHT22;42600;54.408;13.016;2024-02-16T05:00:35;9.60;92.70
420;DHT22;42600;54.408;13.016;2024-02-16T05:03:01;9.60;92.70
420;DHT22;42600;54.408;13.016;2024-02-16T05:05:28;9.60;92.70
420;DHT22;42600;54.408;13.016;2024-02-16T05:07:56;9.60;92.70
420;DHT22;42600;54.408;13.016;2024-02-16T05:10:22;9.60;92.70
420;DHT22;42600;54.408;13.016;2024-02-16T05:12:49;9.60;92.70
420;DHT22;42600;54.408;13.016;2024-02-16T05:15:17;9.60;92.70
420;DHT22;42600;54.408;13.016;2024-02-16T05:17:47;9.60;92.70
420;DHT22;42600;54.408;13.016;2024-02-16T05:20:14;9.50;92.70
420;DHT22;42600;54.408;13.016;2024-02-16T05:22:42;9.50;92.70
420;DHT22;42600;54.408;13.016;2024-02-16T05:25:09;9.50;92.70
420;DHT22;42600;54.408;13.016;2024-02-16T05:27:36;9.40;92.70
420;DHT22;42600;54.408;13.016;2024-02-16T05:30:03;9.40;92.70
420;DHT22;42600;54.408;13.016;2024-02-16T05:32:34;9.40;92.70
420;DHT22;42600;54.408;13.016;2024-02-16T05:35:01;9.50;92.70
420;DHT22;42600;54.408;13.016;2024-02-16T05:37:30;9.50;92.70
420;DHT22;42600;54.408;13.016;2024-02-16T05:39:57;9.50;92.70
420;DHT22;42600;54.408;13.016;2024-02-16T05:42:33;9.60;92.70
420;DHT22;42600;54.408;13.016;2024-02-16T05:45:00;9.60;92.70
420;DHT22;42600;54.408;13.016;2024-02-16T05:47:28;9.60;92.70
420;DHT22;42600;54.408;13.016;2024-02-16T05:49:55;9.70;92.70
420;DHT22;42600;54.408;13.016;2024-02-16T05:52:23;9.70;92.70
420;DHT22;42600;54.408;13.016;2024-02-16T05:54:50;9.70;92.70
420;DHT22;42600;54.408;13.016;2024-02-16T05:57:17;9.70;92.70
420;DHT22;42600;54.408;13.016;2024-02-16T05:59:44;9.70;92.70
420;DHT22;42600;54.408;13.016;2024-02-16T06:02:10;9.70;92.70
420;DHT22;42600;54.408;13.016;2024-02-16T06:04:38;9.70;92.70
420;DHT22;42600;54.408;13.016;2024-02-16T06:07:06;9.70;92.70
420;DHT22;42600;54.408;13.016;2024-02-16T06:09:33;9.70;92.70
420;DHT22;42600;54.408;13.016;2024-02-16T06:12:01;9.70;92.70
420;DHT22;42600;54.408;13.016;2024-02-16T06:14:30;9.70;92.70
420;DHT22;42600;54.408;13.016;2024-02-16T06:16:56;9.70;92.70
420;DHT22;42600;54.408;13.016;2024-02-16T06:19:23;9.70;92.70
420;DHT22;42600;54.408;13.016;2024-02-16T06:21:50;9.70;92.70
420;DHT22;42600;54.408;13.016;2024-02-16T06:24:17;9.70;92.70
420;DHT22;42600;54.408;13.016;2024-02-16T06:26:45;9.70;92.70
420;DHT22;42600;54.408;13.016;2024-02-16T06:29:12;9.70;92.70
420;DHT22;42600;54.408;13.016;2024-02-16T06:31:39;9.70;92.70
420;DHT22;42600;54.408;13.016;2024-02-16T06:34:05;9.70;92.70
420;DHT22;42600;54.408;13.016;2024-02-16T06:36:33;9.80;92.70
420;DHT22;42600;54.408;13.016;2024-02-16T06:39:00;9.70;92.70
420;DHT22;42600;54.408;13.016;2024-02-16T06:41:28;9.70;92.70
420;DHT22;42600;54.408;13.016;2024-02-16T06:43:55;9.70;92.70
420;DHT22;42600;54.408;13.016;2024-02-16T06:46:21;9.80;92.70
420;DHT22;42600;54.408;13.016;2024-02-16T06:48:48;9.70;92.70
420;DHT22;42600;54.408;13.016;2024-02-16T06:51:15;9.70;92.70
420;DHT22;42600;54.408;13.016;2024-02-16T06:53:42;9.70;92.70
420;DHT22;42600;54.408;13.016;2024-02-16T06:56:09;9.70;92.70
420;DHT22;42600;54.408;13.016;2024-02-16T06:58:37;9.70;92.70
420;DHT22;42600;54.408;13.016;2024-02-16T07:01:04;9.70;92.70
420;DHT22;42600;54.408;13.016;2024-02-16T07:03:30;9.70;92.70
420;DHT22;42600;54.408;13.016;2024-02-16T07:05:57;9.70;92.70
420;DHT22;42600;54.408;13.016;2024-02-16T07:08:23;9.80;92.70
420;DHT22;42600;54.408;13.016;2024-02-16T07:10:51;9.80;92.70
420;DHT22;42600;54.408;13.016;2024-02-16T07:13:18;9.80;92.70
420;DHT22;42600;54.408;13.016;2024-02-16T07:15:46;9.80;92.70
420;DHT22;42600;54.408;13.016;2024-02-16T07:18:12;9.80;92.70
420;DHT22;42600;54.408;13.016;2024-02-16T07:20:40;9.80;92.70
420;DHT22;42600;54.408;13.016;2024-02-16T07:23:06;9.80;92.70
420;DHT22;42600;54.408;13.016;2024-02-16T07:25:34;9.90;92.70
420;DHT22;42600;54.408;13.016;2024-02-16T07:28:01;9.90;92.70
420;DHT22;42600;54.408;13.016;2024-02-16T07:30:28;9.90;92.70
420;DHT22;42600;54.408;13.016;2024-02-16T07:32:56;9.90;92.70
420;DHT22;42600;54.408;13.016;2024-02-16T07:35:22;9.90;92.70
420;DHT22;42600;54.408;13.016;2024-02-16T07:37:49;10.00;92.70
420;DHT22;42600;54.408;13.016;2024-02-16T07:40:17;10.00;92.70
420;DHT22;42600;54.408;13.016;2024-02-16T07:42:44;10.00;92.70
420;DHT22;42600;54.408;13.016;2024-02-16T07:45:11;10.00;92.70
420;DHT22;42600;54.408;13.016;2024-02-16T07:47:37;10.00;92.70
420;DHT22;42600;54.408;13.016;2024-02-16T07:50:06;10.00;92.70
420;DHT22;42600;54.408;13.016;2024-02-16T07:52:33;10.10;92.70
420;DHT22;42600;54.408;13.016;2024-02-16T07:54:59;10.10;92.70
420;DHT22;42600;54.408;13.016;2024-02-16T07:57:26;10.10;92.70
420;DHT22;42600;54.408;13.016;2024-02-16T07:59:53;10.10;92.70
420;DHT22;42600;54.408;13.016;2024-02-16T08:02:19;10.20;92.70
420;DHT22;42600;54.408;13.016;2024-02-16T08:04:47;10.20;92.70
420;DHT22;42600;54.408;13.016;2024-02-16T08:07:15;10.20;92.70
420;DHT22;42600;54.408;13.016;2024-02-16T08:09:44;10.30;92.70
420;DHT22;42600;54.408;13.016;2024-02-16T08:12:11;10.30;92.70
420;DHT22;42600;54.408;13.016;2024-02-16T08:14:38;10.30;92.70
420;DHT22;42600;54.408;13.016;2024-02-16T08:17:04;10.40;92.70
420;DHT22;42600;54.408;13.016;2024-02-16T08:19:32;10.40;92.70
420;DHT22;42600;54.408;13.016;2024-02-16T08:21:59;10.40;92.70
420;DHT22;42600;54.408;13.016;2024-02-16T08:24:27;10.40;92.70
420;DHT22;42600;54.408;13.016;2024-02-16T08:26:54;10.50;92.70
420;DHT22;42600;54.408;13.016;2024-02-16T08:29:21;10.50;92.70
420;DHT22;42600;54.408;13.016;2024-02-16T08:31:49;10.50;92.70
420;DHT22;42600;54.408;13.016;2024-02-16T08:34:15;10.50;92.70
420;DHT22;42600;54.408;13.016;2024-02-16T08:36:43;10.50;92.70
420;DHT22;42600;54.408;13.016;2024-02-16T08:39:10;10.60;92.70
420;DHT22;42600;54.408;13.016;2024-02-16T08:41:39;10.60;92.70
420;DHT22;42600;54.408;13.016;2024-02-16T08:44:06;10.60;92.70
420;DHT22;42600;54.408;13.016;2024-02-16T08:46:34;10.60;92.70
420;DHT22;42600;54.408;13.016;2024-02-16T08:49:01;10.70;92.70
420;DHT22;42600;54.408;13.016;2024-02-16T08:51:27;10.70;92.70
420;DHT22;42600;54.408;13.016;2024-02-16T08:53:54;10.70;92.70
420;DHT22;42600;54.408;13.016;2024-02-16T08:56:21;10.70;92.70
420;DHT22;42600;54.408;13.016;2024-02-16T08:58:49;10.70;92.70
420;DHT22;42600;54.408;13.016;2024-02-16T09:01:16;10.70;92.70
420;DHT22;42600;54.408;13.016;2024-02-16T09:03:42;10.70;92.70
420;DHT22;42600;54.408;13.016;2024-02-16T09:06:09;10.80;92.70
420;DHT22;42600;54.408;13.016;2024-02-16T09:08:36;10.80;92.70
420;DHT22;42600;54.408;13.016;2024-02-16T09:11:02;10.80;92.70
420;DHT22;42600;54.408;13.016;2024-02-16T09:13:31;10.80;92.70
420;DHT22;42600;54.408;13.016;2024-02-16T09:15:59;10.80;92.70
420;DHT22;42600;54.408;13.016;2024-02-16T09:18:26;10.80;92.70
420;DHT22;42600;54.408;13.016;2024-02-16T09:20:52;10.90;92.70
420;DHT22;42600;54.408;13.016;2024-02-16T09:23:19;10.90;92.70
420;DHT22;42600;54.408;13.016;2024-02-16T09:25:45;10.90;92.70
420;DHT22;42600;54.408;13.016;2024-02-16T09:28:14;10.90;92.70
420;DHT22;42600;54.408;13.016;2024-02-16T09:30:40;10.90;92.70
420;DHT22;42600;54.408;13.016;2024-02-16T09:33:08;11.00;92.70
420;DHT22;42600;54.408;13.016;2024-02-16T09:35:35;11.00;92.70
420;DHT22;42600;54.408;13.016;2024-02-16T09:38:01;11.00;92.70
420;DHT22;42600;54.408;13.016;2024-02-16T09:40:28;11.00;92.70
420;DHT22;42600;54.408;13.016;2024-02-16T09:42:55;11.10;92.70
420;DHT22;42600;54.408;13.016;2024-02-16T09:45:21;11.10;92.70
420;DHT22;42600;54.408;13.016;2024-02-16T09:47:50;11.20;92.70
420;DHT22;42600;54.408;13.016;2024-02-16T09:50:19;11.20;92.70
420;DHT22;42600;54.408;13.016;2024-02-16T09:52:47;11.30;92.70
420;DHT22;42600;54.408;13.016;2024-02-16T09:55:16;11.30;92.70
420;DHT22;42600;54.408;13.016;2024-02-16T09:57:43;11.40;92.70
420;DHT22;42600;54.408;13.016;2024-02-16T10:00:11;11.40;92.70
420;DHT22;42600;54.408;13.016;2024-02-16T10:02:42;11.40;92.70
420;DHT22;42600;54.408;13.016;2024-02-16T10:05:13;11.50;92.70
420;DHT22;42600;54.408;13.016;2024-02-16T10:07:42;11.50;92.70
420;DHT22;42600;54.408;13.016;2024-02-16T10:10:19;11.50;92.70
420;DHT22;42600;54.408;13.016;2024-02-16T10:12:46;11.50;92.70
420;DHT22;42600;54.408;13.016;2024-02-16T10:15:19;11.60;92.70
420;DHT22;42600;54.408;13.016;2024-02-16T10:17:46;11.70;92.70
420;DHT22;42600;54.408;13.016;2024-02-16T10:20:23;11.70;92.70
420;DHT22;42600;54.408;13.016;2024-02-16T10:23:02;11.80;92.70
420;DHT22;42600;54.408;13.016;2024-02-16T10:25:29;11.90;92.70
420;DHT22;42600;54.408;13.016;2024-02-16T10:27:56;11.90;92.70
420;DHT22;42600;54.408;13.016;2024-02-16T10:30:29;12.00;92.70
420;DHT22;42600;54.408;13.016;2024-02-16T10:32:56;12.00;92.70
420;DHT22;42600;54.408;13.016;2024-02-16T10:35:25;12.00;92.70
420;DHT22;42600;54.408;13.016;2024-02-16T10:37:53;12.10;92.70
420;DHT22;42600;54.408;13.016;2024-02-16T10:40:22;12.10;92.70
420;DHT22;42600;54.408;13.016;2024-02-16T10:42:49;12.20;92.70
420;DHT22;42600;54.408;13.016;2024-02-16T10:45:17;12.20;92.70
420;DHT22;42600;54.408;13.016;2024-02-16T10:47:44;12.30;92.70
420;DHT22;42600;54.408;13.016;2024-02-16T10:50:10;12.30;92.70
420;DHT22;42600;54.408;13.016;2024-02-16T10:52:39;12.40;92.70
420;DHT22;42600;54.408;13.016;2024-02-16T10:55:10;12.40;92.70
420;DHT22;42600;54.408;13.016;2024-02-16T10:57:36;12.40;92.70
420;DHT22;42600;54.408;13.016;2024-02-16T11:00:08;12.40;92.70
420;DHT22;42600;54.408;13.016;2024-02-16T11:02:51;12.50;92.70
420;DHT22;42600;54.408;13.016;2024-02-16T11:05:18;12.50;92.70
420;DHT22;42600;54.408;13.016;2024-02-16T11:07:45;12.60;92.70
420;DHT22;42600;54.408;13.016;2024-02-16T11:10:13;12.60;92.70
420;DHT22;42600;54.408;13.016;2024-02-16T11:12:43;12.60;92.70
420;DHT22;42600;54.408;13.016;2024-02-16T11:15:11;12.60;92.70
420;DHT22;42600;54.408;13.016;2024-02-16T11:17:40;12.60;92.70
420;DHT22;42600;54.408;13.016;2024-02-16T11:20:07;12.70;92.70
420;DHT22;42600;54.408;13.016;2024-02-16T11:22:37;12.70;92.70
420;DHT22;42600;54.408;13.016;2024-02-16T11:25:05;12.80;92.70
420;DHT22;42600;54.408;13.016;2024-02-16T11:27:34;12.80;92.70
420;DHT22;42600;54.408;13.016;2024-02-16T11:30:02;12.80;92.70
420;DHT22;42600;54.408;13.016;2024-02-16T11:32:32;12.90;92.70
420;DHT22;42600;54.408;13.016;2024-02-16T11:35:05;12.90;92.70
420;DHT22;42600;54.408;13.016;2024-02-16T11:37:31;13.00;92.70
420;DHT22;42600;54.408;13.016;2024-02-16T11:39:58;13.00;92.70
420;DHT22;42600;54.408;13.016;2024-02-16T11:42:24;13.10;92.70
420;DHT22;42600;54.408;13.016;2024-02-16T11:44:53;13.10;92.70
420;DHT22;42600;54.408;13.016;2024-02-16T11:47:20;13.20;92.70
420;DHT22;42600;54.408;13.016;2024-02-16T11:50:00;13.30;92.70
420;DHT22;42600;54.408;13.016;2024-02-16T11:52:27;13.30;92.70
420;DHT22;42600;54.408;13.016;2024-02-16T11:54:54;13.40;92.70
420;DHT22;42600;54.408;13.016;2024-02-16T11:57:23;13.40;92.70
420;DHT22;42600;54.408;13.016;2024-02-16T11:59:50;13.40;92.70
420;DHT22;42600;54.408;13.016;2024-02-16T12:02:19;13.40;92.70
420;DHT22;42600;54.408;13.016;2024-02-16T12:04:46;13.50;92.70
420;DHT22;42600;54.408;13.016;2024-02-16T12:07:13;13.50;92.70
420;DHT22;42600;54.408;13.016;2024-02-16T12:09:40;13.60;92.70
420;DHT22;42600;54.408;13.016;2024-02-16T12:12:07;13.60;92.70
420;DHT22;42600;54.408;13.016;2024-02-16T12:14:35;13.60;92.70
420;DHT22;42600;54.408;13.016;2024-02-16T12:17:03;13.60;92.70
420;DHT22;42600;54.408;13.016;2024-02-16T12:19:31;13.60;92.70
420;DHT22;42600;54.408;13.016;2024-02-16T12:21:58;13.70;92.70
420;DHT22;42600;54.408;13.016;2024-02-16T12:24:25;13.70;92.70
420;DHT22;42600;54.408;13.016;2024-02-16T12:26:51;13.70;92.70
420;DHT22;42600;54.408;13.016;2024-02-16T12:29:18;13.80;92.70
420;DHT22;42600;54.408;13.016;2024-02-16T12:31:45;13.80;92.70
420;DHT22;42600;54.408;13.016;2024-02-16T12:34:13;13.80;92.70
420;DHT22;42600;54.408;13.016;2024-02-16T12:36:42;13.80;92.70
420;DHT22;42600;54.408;13.016;2024-02-16T12:39:08;13.70;92.70
420;DHT22;42600;54.408;13.016;2024-02-16T12:41:37;13.70;92.70
420;DHT22;42600;54.408;13.016;2024-02-16T12:44:04;13.70;92.70
420;DHT22;42600;54.408;13.016;2024-02-16T12:46:31;13.80;92.70
420;DHT22;42600;54.408;13.016;2024-02-16T12:48:58;13.80;92.70
420;DHT22;42600;54.408;13.016;2024-02-16T12:51:24;13.80;92.70
420;DHT22;42600;54.408;13.016;2024-02-16T12:53:52;13.80;92.70
420;DHT22;42600;54.408;13.016;2024-02-16T12:56:19;13.80;92.70
420;DHT22;42600;54.408;13.016;2024-02-16T12:58:46;13.80;92.70
420;DHT22;42600;54.408;13.016;2024-02-16T13:01:13;13.80;92.70
420;DHT22;42600;54.408;13.016;2024-02-16T13:03:43;13.90;92.70
420;DHT22;42600;54.408;13.016;2024-02-16T13:06:10;13.90;92.70
420;DHT22;42600;54.408;13.016;2024-02-16T13:08:37;13.90;92.70
420;DHT22;42600;54.408;13.016;2024-02-16T13:11:05;13.90;92.70
420;DHT22;42600;54.408;13.016;2024-02-16T13:13:31;14.00;92.70
420;DHT22;42600;54.408;13.016;2024-02-16T13:15:59;14.00;92.70
420;DHT22;42600;54.408;13.016;2024-02-16T13:18:25;14.00;92.70
420;DHT22;42600;54.408;13.016;2024-02-16T13:20:52;14.00;92.70
420;DHT22;42600;54.408;13.016;2024-02-16T13:23:20;14.10;92.70
420;DHT22;42600;54.408;13.016;2024-02-16T13:25:47;14.10;92.70
420;DHT22;42600;54.408;13.016;2024-02-16T13:28:15;14.10;92.70
420;DHT22;42600;54.408;13.016;2024-02-16T13:30:41;14.10;92.70
420;DHT22;42600;54.408;13.016;2024-02-16T13:33:08;14.10;92.70
420;DHT22;42600;54.408;13.016;2024-02-16T13:35:35;14.10;92.70
420;DHT22;42600;54.408;13.016;2024-02-16T13:38:02;14.10;92.70
420;DHT22;42600;54.408;13.016;2024-02-16T13:40:29;14.10;92.70
420;DHT22;42600;54.408;13.016;2024-02-16T13:42:56;14.10;92.70
420;DHT22;42600;54.408;13.016;2024-02-16T13:45:28;14.20;92.70
420;DHT22;42600;54.408;13.016;2024-02-16T13:47:56;14.10;92.70
420;DHT22;42600;54.408;13.016;2024-02-16T13:50:23;14.10;92.70
420;DHT22;42600;54.408;13.016;2024-02-16T13:52:50;14.10;92.70
420;DHT22;42600;54.408;13.016;2024-02-16T13:55:17;14.10;92.70
420;DHT22;42600;54.408;13.016;2024-02-16T13:57:43;14.10;92.70
420;DHT22;42600;54.408;13.016;2024-02-16T14:00:10;14.10;92.70
420;DHT22;42600;54.408;13.016;2024-02-16T14:02:38;14.10;92.70
420;DHT22;42600;54.408;13.016;2024-02-16T14:05:05;14.10;92.70
420;DHT22;42600;54.408;13.016;2024-02-16T14:07:32;14.00;92.70
420;DHT22;42600;54.408;13.016;2024-02-16T14:09:59;14.00;92.70
420;DHT22;42600;54.408;13.016;2024-02-16T14:12:25;14.00;92.70
420;DHT22;42600;54.408;13.016;2024-02-16T14:14:52;14.00;92.70
420;DHT22;42600;54.408;13.016;2024-02-16T14:17:18;14.00;92.70
420;DHT22;42600;54.408;13.016;2024-02-16T14:19:46;13.90;92.70
420;DHT22;42600;54.408;13.016;2024-02-16T14:22:13;13.90;92.70
420;DHT22;42600;54.408;13.016;2024-02-16T14:24:39;13.90;92.70
420;DHT22;42600;54.408;13.016;2024-02-16T14:27:06;13.90;92.70
420;DHT22;42600;54.408;13.016;2024-02-16T14:29:32;13.90;92.70
420;DHT22;42600;54.408;13.016;2024-02-16T14:31:59;13.90;92.70
420;DHT22;42600;54.408;13.016;2024-02-16T14:34:25;13.90;92.70
420;DHT22;42600;54.408;13.016;2024-02-16T14:36:54;13.80;92.70
420;DHT22;42600;54.408;13.016;2024-02-16T14:39:21;13.80;92.70
420;DHT22;42600;54.408;13.016;2024-02-16T14:41:50;13.80;92.70
420;DHT22;42600;54.408;13.016;2024-02-16T14:44:17;13.80;92.70
420;DHT22;42600;54.408;13.016;2024-02-16T14:46:44;13.80;92.70
420;DHT22;42600;54.408;13.016;2024-02-16T14:49:11;13.80;92.70
420;DHT22;42600;54.408;13.016;2024-02-16T14:51:44;13.80;92.70
420;DHT22;42600;54.408;13.016;2024-02-16T14:54:12;13.80;92.70
420;DHT22;42600;54.408;13.016;2024-02-16T14:56:39;13.80;92.70
420;DHT22;42600;54.408;13.016;2024-02-16T14:59:06;13.80;92.70
420;DHT22;42600;54.408;13.016;2024-02-16T15:01:32;13.80;92.70
420;DHT22;42600;54.408;13.016;2024-02-16T15:03:59;13.80;92.70
420;DHT22;42600;54.408;13.016;2024-02-16T15:06:25;13.80;92.70
420;DHT22;42600;54.408;13.016;2024-02-16T15:08:52;13.80;92.70
420;DHT22;42600;54.408;13.016;2024-02-16T15:11:20;13.80;92.70
420;DHT22;42600;54.408;13.016;2024-02-16T15:13:47;13.80;92.70
420;DHT22;42600;54.408;13.016;2024-02-16T15:16:14;13.70;92.70
420;DHT22;42600;54.408;13.016;2024-02-16T15:18:41;13.70;92.70
420;DHT22;42600;54.408;13.016;2024-02-16T15:21:07;13.70;92.70
420;DHT22;42600;54.408;13.016;2024-02-16T15:23:34;13.70;92.70
420;DHT22;42600;54.408;13.016;2024-02-16T15:26:00;13.70;92.70
420;DHT22;42600;54.408;13.016;2024-02-16T15:28:30;13.70;92.70
420;DHT22;42600;54.408;13.016;2024-02-16T15:30:57;13.70;92.70
420;DHT22;42600;54.408;13.016;2024-02-16T15:33:23;13.70;92.70
420;DHT22;42600;54.408;13.016;2024-02-16T15:35:50;13.70;92.70
420;DHT22;42600;54.408;13.016;2024-02-16T15:38:17;13.70;92.70
420;DHT22;42600;54.408;13.016;2024-02-16T15:40:43;13.70;92.70
420;DHT22;42600;54.408;13.016;2024-02-16T15:43:10;13.70;92.70
420;DHT22;42600;54.408;13.016;2024-02-16T15:45:38;13.70;92.70
420;DHT22;42600;54.408;13.016;2024-02-16T15:48:07;13.70;92.70
420;DHT22;42600;54.408;13.016;2024-02-16T15:50:33;13.60;92.70